Startpagina
METAR-TAF:

METAR-TAF

Vliegvelden :

Internationale luchthaven van Doha

Doha, Qatar

breedte: 25-15-40N, lengte: 051-33-54E, hoogte: 11 m

Actueel weer

Dit bericht is 36 minuten geleden gemaakt, om 18:30 UTC
Wind 12 kt uit het noordwesten, variërend tussen het westen en het noordnoordwesten
Temperatuur 18°C
Vochtigheid 52%
Druk 1016 hPa
Zicht 10 km of meer
geen wolken onder 1500 m en geen cumulonimbus

METAR: OTBD 191830Z 32012KT 280V340 CAVOK 18/08 Q1016 NOSIG

Tijdstip: 22:06 (19:06 UTC)

Verwachting

Dit bericht is 1 uur en het 53 minuten geleden gemaakt, om 17:13 UTC
Verwachting geldig van 19 om 18 UTC tot 20 om 24 UTC
Wind 15 kt uit het noordwesten met uitschieters tot 25 kt
Zicht: 8000 m

TAF: OTBD 191713Z 1918/2024 32015G25KT 8000 NSC

Waarnemingen en weersverwachtingen van meer dan 4000 vliegvelden (METAR en TAF).

De beschikbare stations zijn de gele en rode punten op de kaart.

Ga met uw muis naar het station om de naam te zien.

Klik dan om waarnemingen en weersverwachtingen te zien.

kaart wijzigen: klik op de groene knoppen met een zwart kruis om in te zoomen, op de groene knop met een streepje om uit te zoomen of op de groene pijlen voor aangrenzende kaarten.


METAR-TAF: